sensor_id;sensor_type;location;lat;lon;timestamp;P1;durP1;ratioP1;P2;durP2;ratioP2
57113;SDS011;42994;51.606;9.988;2023-07-31T00:01:17;3.15;;;1.25;;
57113;SDS011;42994;51.606;9.988;2023-07-31T00:03:44;3.70;;;1.55;;
57113;SDS011;42994;51.606;9.988;2023-07-31T00:06:11;2.60;;;1.15;;
57113;SDS011;42994;51.606;9.988;2023-07-31T00:08:38;3.53;;;1.73;;
57113;SDS011;42994;51.606;9.988;2023-07-31T00:11:06;3.47;;;1.55;;
57113;SDS011;42994;51.606;9.988;2023-07-31T00:13:32;5.40;;;1.45;;
57113;SDS011;42994;51.606;9.988;2023-07-31T00:15:59;3.53;;;1.38;;
57113;SDS011;42994;51.606;9.988;2023-07-31T00:18:26;3.50;;;1.40;;
57113;SDS011;42994;51.606;9.988;2023-07-31T00:20:52;2.50;;;1.52;;
57113;SDS011;42994;51.606;9.988;2023-07-31T00:23:19;2.38;;;1.65;;
57113;SDS011;42994;51.606;9.988;2023-07-31T00:25:46;4.57;;;1.45;;
57113;SDS011;42994;51.606;9.988;2023-07-31T00:28:14;2.15;;;1.25;;
57113;SDS011;42994;51.606;9.988;2023-07-31T00:30:40;2.92;;;1.50;;
57113;SDS011;42994;51.606;9.988;2023-07-31T00:33:07;4.65;;;1.50;;
57113;SDS011;42994;51.606;9.988;2023-07-31T00:35:36;3.85;;;1.30;;
57113;SDS011;42994;51.606;9.988;2023-07-31T00:38:02;4.38;;;1.40;;
57113;SDS011;42994;51.606;9.988;2023-07-31T00:40:29;3.55;;;0.95;;
57113;SDS011;42994;51.606;9.988;2023-07-31T00:43:00;4.13;;;1.30;;
57113;SDS011;42994;51.606;9.988;2023-07-31T00:45:28;2.08;;;1.27;;
57113;SDS011;42994;51.606;9.988;2023-07-31T00:47:55;5.47;;;1.48;;
57113;SDS011;42994;51.606;9.988;2023-07-31T00:50:23;4.75;;;1.88;;
57113;SDS011;42994;51.606;9.988;2023-07-31T00:52:50;5.45;;;1.85;;
57113;SDS011;42994;51.606;9.988;2023-07-31T00:55:18;2.80;;;1.13;;
57113;SDS011;42994;51.606;9.988;2023-07-31T00:57:45;6.55;;;1.70;;
57113;SDS011;42994;51.606;9.988;2023-07-31T01:00:11;4.57;;;1.67;;
57113;SDS011;42994;51.606;9.988;2023-07-31T01:02:39;3.83;;;1.63;;
57113;SDS011;42994;51.606;9.988;2023-07-31T01:05:06;2.70;;;1.60;;
57113;SDS011;42994;51.606;9.988;2023-07-31T01:07:35;2.67;;;1.70;;
57113;SDS011;42994;51.606;9.988;2023-07-31T01:10:10;2.25;;;1.50;;
57113;SDS011;42994;51.606;9.988;2023-07-31T01:12:41;2.83;;;1.67;;
57113;SDS011;42994;51.606;9.988;2023-07-31T01:15:08;4.32;;;1.77;;
57113;SDS011;42994;51.606;9.988;2023-07-31T01:17:37;5.15;;;1.90;;
57113;SDS011;42994;51.606;9.988;2023-07-31T01:20:06;9.25;;;1.80;;
57113;SDS011;42994;51.606;9.988;2023-07-31T01:22:43;8.60;;;2.08;;
57113;SDS011;42994;51.606;9.988;2023-07-31T01:25:30;3.83;;;1.70;;
57113;SDS011;42994;51.606;9.988;2023-07-31T01:28:10;4.28;;;1.80;;
57113;SDS011;42994;51.606;9.988;2023-07-31T01:30:41;5.35;;;2.13;;
57113;SDS011;42994;51.606;9.988;2023-07-31T01:33:10;3.40;;;1.67;;
57113;SDS011;42994;51.606;9.988;2023-07-31T01:35:37;3.53;;;1.75;;
57113;SDS011;42994;51.606;9.988;2023-07-31T01:38:04;5.30;;;1.70;;
57113;SDS011;42994;51.606;9.988;2023-07-31T01:40:31;5.55;;;2.40;;
57113;SDS011;42994;51.606;9.988;2023-07-31T01:42:59;4.80;;;1.80;;
57113;SDS011;42994;51.606;9.988;2023-07-31T01:45:27;4.97;;;2.67;;
57113;SDS011;42994;51.606;9.988;2023-07-31T01:47:54;4.05;;;1.70;;
57113;SDS011;42994;51.606;9.988;2023-07-31T01:50:21;6.97;;;1.83;;
57113;SDS011;42994;51.606;9.988;2023-07-31T01:52:47;8.32;;;2.38;;
57113;SDS011;42994;51.606;9.988;2023-07-31T01:55:14;3.15;;;2.05;;
57113;SDS011;42994;51.606;9.988;2023-07-31T01:57:42;7.47;;;1.98;;
57113;SDS011;42994;51.606;9.988;2023-07-31T02:00:10;4.15;;;1.80;;
57113;SDS011;42994;51.606;9.988;2023-07-31T02:02:37;5.70;;;2.00;;
57113;SDS011;42994;51.606;9.988;2023-07-31T02:05:04;5.50;;;2.22;;
57113;SDS011;42994;51.606;9.988;2023-07-31T02:07:31;5.60;;;2.20;;
57113;SDS011;42994;51.606;9.988;2023-07-31T02:09:58;3.40;;;2.42;;
57113;SDS011;42994;51.606;9.988;2023-07-31T02:12:24;5.03;;;2.30;;
57113;SDS011;42994;51.606;9.988;2023-07-31T02:14:51;3.38;;;1.95;;
57113;SDS011;42994;51.606;9.988;2023-07-31T02:17:19;4.65;;;1.60;;
57113;SDS011;42994;51.606;9.988;2023-07-31T02:19:46;5.32;;;2.15;;
57113;SDS011;42994;51.606;9.988;2023-07-31T02:22:12;2.80;;;2.10;;
57113;SDS011;42994;51.606;9.988;2023-07-31T02:24:39;5.25;;;1.67;;
57113;SDS011;42994;51.606;9.988;2023-07-31T02:27:06;4.50;;;2.00;;
57113;SDS011;42994;51.606;9.988;2023-07-31T02:29:32;5.78;;;2.33;;
57113;SDS011;42994;51.606;9.988;2023-07-31T02:31:59;4.43;;;1.85;;
57113;SDS011;42994;51.606;9.988;2023-07-31T02:34:27;2.83;;;1.90;;
57113;SDS011;42994;51.606;9.988;2023-07-31T02:36:53;7.35;;;2.63;;
57113;SDS011;42994;51.606;9.988;2023-07-31T02:39:20;4.03;;;1.83;;
57113;SDS011;42994;51.606;9.988;2023-07-31T02:41:47;4.60;;;2.40;;
57113;SDS011;42994;51.606;9.988;2023-07-31T02:44:13;4.57;;;2.08;;
57113;SDS011;42994;51.606;9.988;2023-07-31T02:46:40;5.30;;;2.00;;
57113;SDS011;42994;51.606;9.988;2023-07-31T02:49:06;4.63;;;2.10;;
57113;SDS011;42994;51.606;9.988;2023-07-31T02:51:34;7.82;;;2.05;;
57113;SDS011;42994;51.606;9.988;2023-07-31T02:54:01;6.72;;;1.80;;
57113;SDS011;42994;51.606;9.988;2023-07-31T02:56:28;4.00;;;2.03;;
57113;SDS011;42994;51.606;9.988;2023-07-31T02:58:54;8.63;;;2.10;;
57113;SDS011;42994;51.606;9.988;2023-07-31T03:01:21;4.07;;;2.00;;
57113;SDS011;42994;51.606;9.988;2023-07-31T03:03:47;3.08;;;1.98;;
57113;SDS011;42994;51.606;9.988;2023-07-31T03:06:14;3.10;;;1.90;;
57113;SDS011;42994;51.606;9.988;2023-07-31T03:08:42;5.95;;;2.00;;
57113;SDS011;42994;51.606;9.988;2023-07-31T03:11:09;3.47;;;1.92;;
57113;SDS011;42994;51.606;9.988;2023-07-31T03:13:35;4.82;;;2.15;;
57113;SDS011;42994;51.606;9.988;2023-07-31T03:16:02;6.05;;;2.30;;
57113;SDS011;42994;51.606;9.988;2023-07-31T03:18:29;4.63;;;2.17;;
57113;SDS011;42994;51.606;9.988;2023-07-31T03:20:55;4.68;;;1.90;;
57113;SDS011;42994;51.606;9.988;2023-07-31T03:23:22;6.30;;;2.00;;
57113;SDS011;42994;51.606;9.988;2023-07-31T03:25:58;3.25;;;1.92;;
57113;SDS011;42994;51.606;9.988;2023-07-31T03:28:28;5.05;;;2.05;;
57113;SDS011;42994;51.606;9.988;2023-07-31T03:30:55;5.38;;;2.67;;
57113;SDS011;42994;51.606;9.988;2023-07-31T03:33:22;4.07;;;2.10;;
57113;SDS011;42994;51.606;9.988;2023-07-31T03:35:49;3.90;;;2.03;;
57113;SDS011;42994;51.606;9.988;2023-07-31T03:38:16;5.82;;;2.50;;
57113;SDS011;42994;51.606;9.988;2023-07-31T03:40:43;6.68;;;2.20;;
57113;SDS011;42994;51.606;9.988;2023-07-31T03:43:12;7.00;;;2.40;;
57113;SDS011;42994;51.606;9.988;2023-07-31T03:45:39;6.00;;;2.75;;
57113;SDS011;42994;51.606;9.988;2023-07-31T03:48:06;4.82;;;2.15;;
57113;SDS011;42994;51.606;9.988;2023-07-31T03:50:33;5.13;;;2.40;;
57113;SDS011;42994;51.606;9.988;2023-07-31T03:53:00;6.82;;;2.20;;
57113;SDS011;42994;51.606;9.988;2023-07-31T03:55:27;5.80;;;2.97;;
57113;SDS011;42994;51.606;9.988;2023-07-31T03:57:53;6.20;;;3.38;;
57113;SDS011;42994;51.606;9.988;2023-07-31T04:00:21;4.43;;;2.65;;
57113;SDS011;42994;51.606;9.988;2023-07-31T04:02:48;2.92;;;2.22;;
57113;SDS011;42994;51.606;9.988;2023-07-31T04:05:15;5.40;;;2.60;;
57113;SDS011;42994;51.606;9.988;2023-07-31T04:07:41;6.50;;;2.75;;
57113;SDS011;42994;51.606;9.988;2023-07-31T04:10:08;3.90;;;2.40;;
57113;SDS011;42994;51.606;9.988;2023-07-31T04:12:35;6.38;;;2.55;;
57113;SDS011;42994;51.606;9.988;2023-07-31T04:15:02;6.60;;;2.58;;
57113;SDS011;42994;51.606;9.988;2023-07-31T04:17:30;11.10;;;2.97;;
57113;SDS011;42994;51.606;9.988;2023-07-31T04:19:57;4.82;;;2.53;;
57113;SDS011;42994;51.606;9.988;2023-07-31T04:22:23;4.15;;;3.20;;
57113;SDS011;42994;51.606;9.988;2023-07-31T04:24:50;4.65;;;2.67;;
57113;SDS011;42994;51.606;9.988;2023-07-31T04:27:17;6.03;;;2.65;;
57113;SDS011;42994;51.606;9.988;2023-07-31T04:29:43;4.68;;;3.40;;
57113;SDS011;42994;51.606;9.988;2023-07-31T04:32:12;5.18;;;3.28;;
57113;SDS011;42994;51.606;9.988;2023-07-31T04:34:42;4.97;;;2.75;;
57113;SDS011;42994;51.606;9.988;2023-07-31T04:37:08;4.82;;;3.33;;
57113;SDS011;42994;51.606;9.988;2023-07-31T04:39:35;7.18;;;2.90;;
57113;SDS011;42994;51.606;9.988;2023-07-31T04:42:02;8.10;;;3.05;;
57113;SDS011;42994;51.606;9.988;2023-07-31T04:44:29;7.30;;;3.45;;
57113;SDS011;42994;51.606;9.988;2023-07-31T04:46:55;5.30;;;2.85;;
57113;SDS011;42994;51.606;9.988;2023-07-31T04:49:22;6.53;;;2.90;;
57113;SDS011;42994;51.606;9.988;2023-07-31T04:51:50;5.13;;;3.30;;
57113;SDS011;42994;51.606;9.988;2023-07-31T04:54:16;3.80;;;2.97;;
57113;SDS011;42994;51.606;9.988;2023-07-31T04:56:43;3.95;;;2.95;;
57113;SDS011;42994;51.606;9.988;2023-07-31T04:59:09;4.50;;;3.10;;
57113;SDS011;42994;51.606;9.988;2023-07-31T05:01:36;5.95;;;3.22;;
57113;SDS011;42994;51.606;9.988;2023-07-31T05:04:03;4.80;;;3.22;;
57113;SDS011;42994;51.606;9.988;2023-07-31T05:06:29;6.63;;;4.07;;
57113;SDS011;42994;51.606;9.988;2023-07-31T05:08:57;8.43;;;3.25;;
57113;SDS011;42994;51.606;9.988;2023-07-31T05:11:24;5.93;;;2.97;;
57113;SDS011;42994;51.606;9.988;2023-07-31T05:13:51;4.82;;;3.13;;
57113;SDS011;42994;51.606;9.988;2023-07-31T05:16:17;4.47;;;3.20;;
57113;SDS011;42994;51.606;9.988;2023-07-31T05:18:44;6.15;;;3.70;;
57113;SDS011;42994;51.606;9.988;2023-07-31T05:21:10;4.85;;;3.20;;
57113;SDS011;42994;51.606;9.988;2023-07-31T05:23:37;3.30;;;2.33;;
57113;SDS011;42994;51.606;9.988;2023-07-31T05:26:05;4.47;;;2.53;;
57113;SDS011;42994;51.606;9.988;2023-07-31T05:28:33;3.33;;;2.70;;
57113;SDS011;42994;51.606;9.988;2023-07-31T05:31:01;3.35;;;2.95;;
57113;SDS011;42994;51.606;9.988;2023-07-31T05:33:28;4.03;;;2.70;;
57113;SDS011;42994;51.606;9.988;2023-07-31T05:35:54;4.25;;;2.55;;
57113;SDS011;42994;51.606;9.988;2023-07-31T05:38:21;3.88;;;2.80;;
57113;SDS011;42994;51.606;9.988;2023-07-31T05:40:48;5.30;;;2.70;;
57113;SDS011;42994;51.606;9.988;2023-07-31T05:43:16;4.55;;;2.58;;
57113;SDS011;42994;51.606;9.988;2023-07-31T05:45:42;5.13;;;2.38;;
57113;SDS011;42994;51.606;9.988;2023-07-31T05:48:09;4.70;;;2.75;;
57113;SDS011;42994;51.606;9.988;2023-07-31T05:50:36;8.40;;;3.05;;
57113;SDS011;42994;51.606;9.988;2023-07-31T05:53:04;5.25;;;2.30;;
57113;SDS011;42994;51.606;9.988;2023-07-31T05:55:30;4.03;;;2.70;;
57113;SDS011;42994;51.606;9.988;2023-07-31T05:57:57;6.65;;;2.50;;
57113;SDS011;42994;51.606;9.988;2023-07-31T06:00:25;8.63;;;2.78;;
57113;SDS011;42994;51.606;9.988;2023-07-31T06:02:52;3.17;;;2.65;;
57113;SDS011;42994;51.606;9.988;2023-07-31T06:05:19;5.63;;;2.33;;
57113;SDS011;42994;51.606;9.988;2023-07-31T06:07:45;4.18;;;2.33;;
57113;SDS011;42994;51.606;9.988;2023-07-31T06:10:12;3.47;;;2.40;;
57113;SDS011;42994;51.606;9.988;2023-07-31T06:12:39;4.03;;;2.53;;
57113;SDS011;42994;51.606;9.988;2023-07-31T06:15:06;6.40;;;2.55;;
57113;SDS011;42994;51.606;9.988;2023-07-31T06:17:34;4.50;;;2.58;;
57113;SDS011;42994;51.606;9.988;2023-07-31T06:20:01;5.70;;;2.08;;
57113;SDS011;42994;51.606;9.988;2023-07-31T06:22:30;5.03;;;2.70;;
57113;SDS011;42994;51.606;9.988;2023-07-31T06:24:56;5.78;;;2.75;;
57113;SDS011;42994;51.606;9.988;2023-07-31T06:27:23;6.95;;;2.53;;
57113;SDS011;42994;51.606;9.988;2023-07-31T06:29:50;7.15;;;2.40;;
57113;SDS011;42994;51.606;9.988;2023-07-31T06:32:17;5.85;;;2.80;;
57113;SDS011;42994;51.606;9.988;2023-07-31T06:34:45;6.80;;;2.80;;
57113;SDS011;42994;51.606;9.988;2023-07-31T06:37:12;6.18;;;2.72;;
57113;SDS011;42994;51.606;9.988;2023-07-31T06:39:39;2.95;;;2.15;;
57113;SDS011;42994;51.606;9.988;2023-07-31T06:42:06;11.38;;;2.85;;
57113;SDS011;42994;51.606;9.988;2023-07-31T06:44:32;4.65;;;2.60;;
57113;SDS011;42994;51.606;9.988;2023-07-31T06:46:59;7.28;;;2.85;;
57113;SDS011;42994;51.606;9.988;2023-07-31T06:49:26;8.45;;;2.83;;
57113;SDS011;42994;51.606;9.988;2023-07-31T06:51:54;4.65;;;2.38;;
57113;SDS011;42994;51.606;9.988;2023-07-31T06:54:20;6.80;;;2.60;;
57113;SDS011;42994;51.606;9.988;2023-07-31T06:56:47;6.57;;;2.60;;
57113;SDS011;42994;51.606;9.988;2023-07-31T06:59:13;6.43;;;2.75;;
57113;SDS011;42994;51.606;9.988;2023-07-31T07:01:40;5.55;;;2.95;;
57113;SDS011;42994;51.606;9.988;2023-07-31T07:04:06;7.32;;;2.65;;
57113;SDS011;42994;51.606;9.988;2023-07-31T07:06:33;7.68;;;2.85;;
57113;SDS011;42994;51.606;9.988;2023-07-31T07:09:01;6.35;;;2.90;;
57113;SDS011;42994;51.606;9.988;2023-07-31T07:11:28;7.50;;;2.95;;
57113;SDS011;42994;51.606;9.988;2023-07-31T07:13:55;7.15;;;3.15;;
57113;SDS011;42994;51.606;9.988;2023-07-31T07:16:21;9.32;;;2.75;;
57113;SDS011;42994;51.606;9.988;2023-07-31T07:18:48;4.88;;;2.53;;
57113;SDS011;42994;51.606;9.988;2023-07-31T07:21:14;9.23;;;3.33;;
57113;SDS011;42994;51.606;9.988;2023-07-31T07:23:43;3.67;;;2.47;;
57113;SDS011;42994;51.606;9.988;2023-07-31T07:26:11;6.30;;;2.90;;
57113;SDS011;42994;51.606;9.988;2023-07-31T07:28:37;4.05;;;2.67;;
57113;SDS011;42994;51.606;9.988;2023-07-31T07:31:04;4.75;;;3.63;;
57113;SDS011;42994;51.606;9.988;2023-07-31T07:33:30;5.20;;;2.97;;
57113;SDS011;42994;51.606;9.988;2023-07-31T07:35:59;5.53;;;2.88;;
57113;SDS011;42994;51.606;9.988;2023-07-31T07:38:26;4.30;;;3.20;;
57113;SDS011;42994;51.606;9.988;2023-07-31T07:40:53;6.47;;;3.28;;
57113;SDS011;42994;51.606;9.988;2023-07-31T07:43:21;2.88;;;2.08;;
57113;SDS011;42994;51.606;9.988;2023-07-31T07:45:47;3.92;;;2.30;;
57113;SDS011;42994;51.606;9.988;2023-07-31T07:48:14;8.68;;;3.20;;
57113;SDS011;42994;51.606;9.988;2023-07-31T07:50:42;5.13;;;2.55;;
57113;SDS011;42994;51.606;9.988;2023-07-31T07:53:09;4.70;;;2.13;;
57113;SDS011;42994;51.606;9.988;2023-07-31T07:55:35;4.38;;;2.58;;
57113;SDS011;42994;51.606;9.988;2023-07-31T07:58:02;5.15;;;2.50;;
57113;SDS011;42994;51.606;9.988;2023-07-31T08:00:30;4.57;;;3.40;;
57113;SDS011;42994;51.606;9.988;2023-07-31T08:02:56;3.83;;;2.58;;
57113;SDS011;42994;51.606;9.988;2023-07-31T08:05:23;4.65;;;2.72;;
57113;SDS011;42994;51.606;9.988;2023-07-31T08:07:50;7.05;;;2.80;;
57113;SDS011;42994;51.606;9.988;2023-07-31T08:10:16;6.70;;;2.85;;
57113;SDS011;42994;51.606;9.988;2023-07-31T08:12:43;5.63;;;2.40;;
57113;SDS011;42994;51.606;9.988;2023-07-31T08:15:10;6.57;;;2.55;;
57113;SDS011;42994;51.606;9.988;2023-07-31T08:17:38;3.50;;;2.30;;
57113;SDS011;42994;51.606;9.988;2023-07-31T08:20:05;3.58;;;2.50;;
57113;SDS011;42994;51.606;9.988;2023-07-31T08:22:32;3.38;;;1.98;;
57113;SDS011;42994;51.606;9.988;2023-07-31T08:24:59;4.18;;;2.20;;
57113;SDS011;42994;51.606;9.988;2023-07-31T08:27:25;4.85;;;2.05;;
57113;SDS011;42994;51.606;9.988;2023-07-31T08:29:52;4.43;;;2.15;;
57113;SDS011;42994;51.606;9.988;2023-07-31T08:32:19;4.93;;;2.50;;
57113;SDS011;42994;51.606;9.988;2023-07-31T08:34:47;3.85;;;2.45;;
57113;SDS011;42994;51.606;9.988;2023-07-31T08:37:14;4.78;;;2.30;;
57113;SDS011;42994;51.606;9.988;2023-07-31T08:39:40;4.10;;;2.90;;
57113;SDS011;42994;51.606;9.988;2023-07-31T08:42:07;5.47;;;2.85;;
57113;SDS011;42994;51.606;9.988;2023-07-31T08:44:35;4.50;;;2.70;;
57113;SDS011;42994;51.606;9.988;2023-07-31T08:47:03;5.63;;;2.72;;
57113;SDS011;42994;51.606;9.988;2023-07-31T08:49:31;5.25;;;2.50;;
57113;SDS011;42994;51.606;9.988;2023-07-31T08:51:59;6.00;;;3.08;;
57113;SDS011;42994;51.606;9.988;2023-07-31T08:54:26;6.30;;;2.78;;
57113;SDS011;42994;51.606;9.988;2023-07-31T08:56:56;6.97;;;2.85;;
57113;SDS011;42994;51.606;9.988;2023-07-31T08:59:23;4.03;;;2.72;;
57113;SDS011;42994;51.606;9.988;2023-07-31T09:01:50;6.65;;;2.80;;
57113;SDS011;42994;51.606;9.988;2023-07-31T09:04:20;6.68;;;2.72;;
57113;SDS011;42994;51.606;9.988;2023-07-31T09:06:48;6.18;;;3.00;;
57113;SDS011;42994;51.606;9.988;2023-07-31T09:09:18;7.72;;;2.90;;
57113;SDS011;42994;51.606;9.988;2023-07-31T09:11:45;7.47;;;2.63;;
57113;SDS011;42994;51.606;9.988;2023-07-31T09:14:12;5.20;;;2.72;;
57113;SDS011;42994;51.606;9.988;2023-07-31T09:16:51;8.23;;;3.15;;
57113;SDS011;42994;51.606;9.988;2023-07-31T09:19:24;8.73;;;3.00;;
57113;SDS011;42994;51.606;9.988;2023-07-31T09:21:52;5.07;;;3.53;;
57113;SDS011;42994;51.606;9.988;2023-07-31T09:24:26;7.38;;;2.95;;
57113;SDS011;42994;51.606;9.988;2023-07-31T09:26:53;4.93;;;3.28;;
57113;SDS011;42994;51.606;9.988;2023-07-31T09:29:21;4.65;;;3.08;;
57113;SDS011;42994;51.606;9.988;2023-07-31T09:31:48;8.93;;;3.08;;
57113;SDS011;42994;51.606;9.988;2023-07-31T09:34:15;6.78;;;4.18;;
57113;SDS011;42994;51.606;9.988;2023-07-31T09:36:41;7.50;;;3.25;;
57113;SDS011;42994;51.606;9.988;2023-07-31T09:39:09;5.45;;;2.80;;
57113;SDS011;42994;51.606;9.988;2023-07-31T09:41:37;5.10;;;2.78;;
57113;SDS011;42994;51.606;9.988;2023-07-31T09:44:05;5.47;;;2.70;;
57113;SDS011;42994;51.606;9.988;2023-07-31T09:46:31;2.92;;;2.72;;
57113;SDS011;42994;51.606;9.988;2023-07-31T09:49:07;8.63;;;3.13;;
57113;SDS011;42994;51.606;9.988;2023-07-31T09:51:35;4.72;;;2.90;;
57113;SDS011;42994;51.606;9.988;2023-07-31T09:54:10;7.55;;;3.22;;
57113;SDS011;42994;51.606;9.988;2023-07-31T09:56:41;7.75;;;2.88;;
57113;SDS011;42994;51.606;9.988;2023-07-31T09:59:10;4.75;;;2.80;;
57113;SDS011;42994;51.606;9.988;2023-07-31T10:01:38;5.32;;;2.50;;
57113;SDS011;42994;51.606;9.988;2023-07-31T10:04:07;6.10;;;3.03;;
57113;SDS011;42994;51.606;9.988;2023-07-31T10:06:35;9.23;;;2.40;;
57113;SDS011;42994;51.606;9.988;2023-07-31T10:09:03;4.85;;;2.63;;
57113;SDS011;42994;51.606;9.988;2023-07-31T10:11:32;3.58;;;2.90;;
57113;SDS011;42994;51.606;9.988;2023-07-31T10:14:03;3.75;;;2.58;;
57113;SDS011;42994;51.606;9.988;2023-07-31T10:16:31;3.92;;;2.80;;
57113;SDS011;42994;51.606;9.988;2023-07-31T10:18:59;5.68;;;2.75;;
57113;SDS011;42994;51.606;9.988;2023-07-31T10:21:25;5.25;;;2.38;;
57113;SDS011;42994;51.606;9.988;2023-07-31T10:23:52;3.97;;;2.50;;
57113;SDS011;42994;51.606;9.988;2023-07-31T10:26:21;4.30;;;2.50;;
57113;SDS011;42994;51.606;9.988;2023-07-31T10:28:51;5.63;;;2.60;;
57113;SDS011;42994;51.606;9.988;2023-07-31T10:31:21;7.38;;;2.83;;
57113;SDS011;42994;51.606;9.988;2023-07-31T10:33:48;2.88;;;2.17;;
57113;SDS011;42994;51.606;9.988;2023-07-31T10:36:17;5.53;;;2.65;;
57113;SDS011;42994;51.606;9.988;2023-07-31T10:38:45;4.47;;;2.20;;
57113;SDS011;42994;51.606;9.988;2023-07-31T10:41:11;4.70;;;2.47;;
57113;SDS011;42994;51.606;9.988;2023-07-31T10:43:38;4.43;;;2.33;;
57113;SDS011;42994;51.606;9.988;2023-07-31T10:46:08;4.65;;;2.88;;
57113;SDS011;42994;51.606;9.988;2023-07-31T10:48:38;4.17;;;2.80;;
57113;SDS011;42994;51.606;9.988;2023-07-31T10:51:07;4.60;;;2.55;;
57113;SDS011;42994;51.606;9.988;2023-07-31T10:53:36;5.40;;;2.88;;
57113;SDS011;42994;51.606;9.988;2023-07-31T10:56:03;3.15;;;2.58;;
57113;SDS011;42994;51.606;9.988;2023-07-31T10:58:31;4.60;;;2.47;;
57113;SDS011;42994;51.606;9.988;2023-07-31T11:00:58;4.40;;;2.50;;
57113;SDS011;42994;51.606;9.988;2023-07-31T11:03:27;5.35;;;2.40;;
57113;SDS011;42994;51.606;9.988;2023-07-31T11:06:08;5.65;;;2.85;;
57113;SDS011;42994;51.606;9.988;2023-07-31T11:08:35;5.32;;;3.55;;
57113;SDS011;42994;51.606;9.988;2023-07-31T11:11:08;5.95;;;3.42;;
57113;SDS011;42994;51.606;9.988;2023-07-31T11:13:43;5.30;;;3.03;;
57113;SDS011;42994;51.606;9.988;2023-07-31T11:16:11;5.50;;;3.28;;
57113;SDS011;42994;51.606;9.988;2023-07-31T11:18:39;5.57;;;2.85;;
57113;SDS011;42994;51.606;9.988;2023-07-31T11:21:08;6.68;;;2.88;;
57113;SDS011;42994;51.606;9.988;2023-07-31T11:23:38;6.60;;;2.88;;
57113;SDS011;42994;51.606;9.988;2023-07-31T11:26:05;4.47;;;3.20;;
57113;SDS011;42994;51.606;9.988;2023-07-31T11:28:32;5.07;;;2.75;;
57113;SDS011;42994;51.606;9.988;2023-07-31T11:31:00;9.18;;;3.30;;
57113;SDS011;42994;51.606;9.988;2023-07-31T11:33:26;4.78;;;3.03;;
57113;SDS011;42994;51.606;9.988;2023-07-31T11:35:53;4.63;;;2.70;;
57113;SDS011;42994;51.606;9.988;2023-07-31T11:38:25;8.80;;;2.70;;
57113;SDS011;42994;51.606;9.988;2023-07-31T11:40:53;5.90;;;3.33;;
57113;SDS011;42994;51.606;9.988;2023-07-31T11:43:20;5.18;;;2.95;;
57113;SDS011;42994;51.606;9.988;2023-07-31T11:45:48;5.55;;;2.70;;
57113;SDS011;42994;51.606;9.988;2023-07-31T11:48:19;5.50;;;3.42;;
57113;SDS011;42994;51.606;9.988;2023-07-31T11:50:47;5.47;;;3.13;;
57113;SDS011;42994;51.606;9.988;2023-07-31T11:53:15;8.82;;;3.38;;
57113;SDS011;42994;51.606;9.988;2023-07-31T11:55:46;10.52;;;3.15;;
57113;SDS011;42994;51.606;9.988;2023-07-31T11:58:13;8.68;;;2.67;;
57113;SDS011;42994;51.606;9.988;2023-07-31T12:00:42;4.20;;;2.30;;
57113;SDS011;42994;51.606;9.988;2023-07-31T12:03:08;5.82;;;2.63;;
57113;SDS011;42994;51.606;9.988;2023-07-31T12:05:36;3.70;;;2.50;;
57113;SDS011;42994;51.606;9.988;2023-07-31T12:08:05;9.15;;;2.55;;
57113;SDS011;42994;51.606;9.988;2023-07-31T12:10:35;5.20;;;3.15;;
57113;SDS011;42994;51.606;9.988;2023-07-31T12:13:04;4.85;;;2.42;;
57113;SDS011;42994;51.606;9.988;2023-07-31T12:15:32;6.57;;;2.53;;
57113;SDS011;42994;51.606;9.988;2023-07-31T12:18:00;4.63;;;2.15;;
57113;SDS011;42994;51.606;9.988;2023-07-31T12:20:29;3.88;;;2.40;;
57113;SDS011;42994;51.606;9.988;2023-07-31T12:22:56;7.72;;;2.20;;
57113;SDS011;42994;51.606;9.988;2023-07-31T12:25:28;4.68;;;2.65;;
57113;SDS011;42994;51.606;9.988;2023-07-31T12:27:55;3.42;;;2.55;;
57113;SDS011;42994;51.606;9.988;2023-07-31T12:30:29;5.03;;;2.38;;
57113;SDS011;42994;51.606;9.988;2023-07-31T12:33:02;5.30;;;2.22;;
57113;SDS011;42994;51.606;9.988;2023-07-31T12:35:34;5.55;;;2.72;;
57113;SDS011;42994;51.606;9.988;2023-07-31T12:38:01;6.60;;;2.95;;
57113;SDS011;42994;51.606;9.988;2023-07-31T12:40:28;5.70;;;2.67;;
57113;SDS011;42994;51.606;9.988;2023-07-31T12:42:54;3.08;;;2.05;;
57113;SDS011;42994;51.606;9.988;2023-07-31T12:45:21;4.28;;;2.47;;
57113;SDS011;42994;51.606;9.988;2023-07-31T12:47:49;4.82;;;3.00;;
57113;SDS011;42994;51.606;9.988;2023-07-31T12:50:16;6.40;;;2.55;;
57113;SDS011;42994;51.606;9.988;2023-07-31T12:52:43;3.85;;;2.30;;
57113;SDS011;42994;51.606;9.988;2023-07-31T12:55:09;3.08;;;2.30;;
57113;SDS011;42994;51.606;9.988;2023-07-31T12:57:36;2.33;;;2.13;;
57113;SDS011;42994;51.606;9.988;2023-07-31T13:00:03;6.90;;;2.85;;
57113;SDS011;42994;51.606;9.988;2023-07-31T13:02:31;4.53;;;2.78;;
57113;SDS011;42994;51.606;9.988;2023-07-31T13:04:59;6.68;;;2.50;;
57113;SDS011;42994;51.606;9.988;2023-07-31T13:07:26;7.15;;;2.85;;
57113;SDS011;42994;51.606;9.988;2023-07-31T13:09:53;3.90;;;2.78;;
57113;SDS011;42994;51.606;9.988;2023-07-31T13:12:19;2.92;;;2.63;;
57113;SDS011;42994;51.606;9.988;2023-07-31T13:14:46;4.57;;;2.38;;
57113;SDS011;42994;51.606;9.988;2023-07-31T13:17:12;2.67;;;2.30;;
57113;SDS011;42994;51.606;9.988;2023-07-31T13:19:39;3.63;;;2.80;;
57113;SDS011;42994;51.606;9.988;2023-07-31T13:22:07;6.80;;;3.72;;
57113;SDS011;42994;51.606;9.988;2023-07-31T13:24:34;4.72;;;3.05;;
57113;SDS011;42994;51.606;9.988;2023-07-31T13:27:00;4.22;;;2.63;;
57113;SDS011;42994;51.606;9.988;2023-07-31T13:29:27;5.38;;;3.80;;
57113;SDS011;42994;51.606;9.988;2023-07-31T13:31:55;5.28;;;3.05;;
57113;SDS011;42994;51.606;9.988;2023-07-31T13:34:22;5.55;;;3.15;;
57113;SDS011;42994;51.606;9.988;2023-07-31T13:36:48;6.22;;;2.92;;
57113;SDS011;42994;51.606;9.988;2023-07-31T13:39:17;5.15;;;2.45;;
57113;SDS011;42994;51.606;9.988;2023-07-31T13:41:44;3.72;;;2.90;;
57113;SDS011;42994;51.606;9.988;2023-07-31T13:44:11;5.30;;;2.78;;
57113;SDS011;42994;51.606;9.988;2023-07-31T13:46:38;5.82;;;3.40;;
57113;SDS011;42994;51.606;9.988;2023-07-31T13:49:04;6.75;;;3.30;;
57113;SDS011;42994;51.606;9.988;2023-07-31T13:51:31;5.75;;;3.55;;
57113;SDS011;42994;51.606;9.988;2023-07-31T13:53:58;8.52;;;3.95;;
57113;SDS011;42994;51.606;9.988;2023-07-31T13:56:27;4.43;;;3.08;;
57113;SDS011;42994;51.606;9.988;2023-07-31T13:58:54;4.07;;;2.88;;
57113;SDS011;42994;51.606;9.988;2023-07-31T14:01:21;5.63;;;2.72;;
57113;SDS011;42994;51.606;9.988;2023-07-31T14:03:48;5.82;;;2.92;;
57113;SDS011;42994;51.606;9.988;2023-07-31T14:06:14;8.88;;;3.00;;
57113;SDS011;42994;51.606;9.988;2023-07-31T14:08:41;4.00;;;2.72;;
57113;SDS011;42994;51.606;9.988;2023-07-31T14:11:08;10.10;;;3.10;;
57113;SDS011;42994;51.606;9.988;2023-07-31T14:13:36;5.80;;;3.30;;
57113;SDS011;42994;51.606;9.988;2023-07-31T14:16:03;4.70;;;2.75;;
57113;SDS011;42994;51.606;9.988;2023-07-31T14:18:30;4.78;;;2.80;;
57113;SDS011;42994;51.606;9.988;2023-07-31T14:20:57;5.70;;;2.75;;
57113;SDS011;42994;51.606;9.988;2023-07-31T14:23:23;6.88;;;2.97;;
57113;SDS011;42994;51.606;9.988;2023-07-31T14:25:50;4.57;;;2.47;;
57113;SDS011;42994;51.606;9.988;2023-07-31T14:28:17;4.93;;;2.80;;
57113;SDS011;42994;51.606;9.988;2023-07-31T14:30:45;7.43;;;2.30;;
57113;SDS011;42994;51.606;9.988;2023-07-31T14:33:12;4.55;;;2.65;;
57113;SDS011;42994;51.606;9.988;2023-07-31T14:35:39;7.25;;;2.72;;
57113;SDS011;42994;51.606;9.988;2023-07-31T14:38:06;4.43;;;2.38;;
57113;SDS011;42994;51.606;9.988;2023-07-31T14:40:33;7.15;;;3.03;;
57113;SDS011;42994;51.606;9.988;2023-07-31T14:42:59;4.53;;;2.13;;
57113;SDS011;42994;51.606;9.988;2023-07-31T14:45:26;4.38;;;2.78;;
57113;SDS011;42994;51.606;9.988;2023-07-31T14:47:55;3.60;;;2.40;;
57113;SDS011;42994;51.606;9.988;2023-07-31T14:50:21;5.45;;;2.80;;